Time,TemperatureF,DewpointF,PressureIn,WindDirection,WindDirectionDegrees,WindSpeedMPH,WindSpeedGustMPH,Humidity,HourlyPrecipIn,Conditions,Clouds,dailyrainin,SoftwareType,DateUTC
2013-03-28 00:00:00,38.1,32.2,30.26,West,281,0.0,0.0,79,0.00,,,0.00,Wunderground v.1.15,2013-03-28 04:00:00,
2013-03-28 00:05:00,37.5,31.6,30.25,West,281,0.0,0.0,79,0.00,,,0.00,Wunderground v.1.15,2013-03-28 04:05:00,
2013-03-28 00:10:00,37.1,31.2,30.25,West,281,0.0,0.0,79,0.00,,,0.00,Wunderground v.1.15,2013-03-28 04:10:00,
2013-03-28 00:15:00,36.6,31.0,30.25,West,281,0.0,0.0,80,0.00,,,0.00,Wunderground v.1.15,2013-03-28 04:15:00,
2013-03-28 00:20:00,36.2,30.6,30.25,West,281,0.0,0.0,80,0.00,,,0.00,Wunderground v.1.15,2013-03-28 04:20:00,
2013-03-28 00:25:00,35.9,30.3,30.25,West,281,0.0,0.0,80,0.00,,,0.00,Wunderground v.1.15,2013-03-28 04:25:00,
2013-03-28 00:30:00,35.6,30.3,30.25,West,281,0.0,0.0,81,0.00,,,0.00,Wunderground v.1.15,2013-03-28 04:30:00,
2013-03-28 00:40:00,35.0,29.8,30.24,West,281,0.0,0.0,81,0.00,,,0.00,Wunderground v.1.15,2013-03-28 04:40:00,
2013-03-28 00:45:00,34.8,29.6,30.24,West,281,0.0,0.0,81,0.00,,,0.00,Wunderground v.1.15,2013-03-28 04:45:00,
2013-03-28 00:50:00,34.7,29.8,30.24,West,281,0.0,0.0,82,0.00,,,0.00,Wunderground v.1.15,2013-03-28 04:50:00,
2013-03-28 00:55:00,34.7,29.8,30.24,West,281,0.0,0.0,82,0.00,,,0.00,Wunderground v.1.15,2013-03-28 04:55:00,
2013-03-28 01:00:00,34.8,29.9,30.24,West,281,0.0,0.0,82,0.00,,,0.00,Wunderground v.1.15,2013-03-28 05:00:00,
2013-03-28 01:05:00,34.7,30.1,30.24,West,281,0.0,0.0,83,0.00,,,0.00,Wunderground v.1.15,2013-03-28 05:05:00,
2013-03-28 01:10:00,34.5,29.9,30.25,West,281,0.0,0.0,83,0.00,,,0.00,Wunderground v.1.15,2013-03-28 05:10:00,
2013-03-28 01:15:00,34.4,29.8,30.25,West,281,0.0,0.0,83,0.00,,,0.00,Wunderground v.1.15,2013-03-28 05:15:00,
2013-03-28 01:20:00,34.4,29.8,30.25,West,281,0.0,0.0,83,0.00,,,0.00,Wunderground v.1.15,2013-03-28 05:20:00,
2013-03-28 01:30:00,34.2,29.9,30.24,West,281,0.0,0.0,84,0.00,,,0.00,Wunderground v.1.15,2013-03-28 05:30:00,
2013-03-28 01:35:00,34.2,29.6,30.24,West,281,0.0,0.0,83,0.00,,,0.00,Wunderground v.1.15,2013-03-28 05:35:00,
2013-03-28 01:45:00,34.1,29.8,30.24,West,281,0.0,0.0,84,0.00,,,0.00,Wunderground v.1.15,2013-03-28 05:45:00,
2013-03-28 01:50:00,34.2,29.9,30.24,West,281,0.0,0.0,84,0.00,,,0.00,Wunderground v.1.15,2013-03-28 05:50:00,
2013-03-28 01:55:00,34.4,30.4,30.24,West,281,0.0,0.0,85,0.00,,,0.00,Wunderground v.1.15,2013-03-28 05:55:00,
2013-03-28 02:00:00,34.2,29.9,30.24,West,281,0.0,0.0,84,0.00,,,0.00,Wunderground v.1.15,2013-03-28 06:00:00,
2013-03-28 02:05:00,33.9,29.6,30.24,West,281,0.0,0.0,84,0.00,,,0.00,Wunderground v.1.15,2013-03-28 06:05:00,
2013-03-28 02:10:00,33.6,29.3,30.24,West,281,0.0,0.0,84,0.00,,,0.00,Wunderground v.1.15,2013-03-28 06:10:00,
2013-03-28 02:15:00,33.4,29.1,30.24,West,281,0.0,0.0,84,0.00,,,0.00,Wunderground v.1.15,2013-03-28 06:15:00,
2013-03-28 02:20:00,33.4,29.4,30.24,West,281,0.0,0.0,85,0.00,,,0.00,Wunderground v.1.15,2013-03-28 06:20:00,
2013-03-28 02:30:00,33.0,29.0,30.23,West,281,0.0,0.0,85,0.00,,,0.00,Wunderground v.1.15,2013-03-28 06:30:00,
2013-03-28 02:40:00,32.5,28.5,30.23,West,281,0.0,0.0,85,0.00,,,0.00,Wunderground v.1.15,2013-03-28 06:40:00,
2013-03-28 02:50:00,32.1,28.1,30.22,West,281,0.0,0.0,85,0.00,,,0.00,Wunderground v.1.15,2013-03-28 06:50:00,
2013-03-28 02:55:00,32.0,28.0,30.22,West,281,0.0,0.0,85,0.00,,,0.00,Wunderground v.1.15,2013-03-28 06:55:00,
2013-03-28 03:00:00,31.9,27.9,30.22,West,281,0.0,0.0,85,0.00,,,0.00,Wunderground v.1.15,2013-03-28 07:00:00,
2013-03-28 03:05:00,31.7,27.7,30.22,West,281,0.0,0.0,85,0.00,,,0.00,Wunderground v.1.15,2013-03-28 07:05:00,
2013-03-28 03:10:00,31.6,27.6,30.22,West,281,0.0,0.0,85,0.00,,,0.00,Wunderground v.1.15,2013-03-28 07:10:00,
2013-03-28 03:15:00,31.4,27.4,30.22,West,281,0.0,0.0,85,0.00,,,0.00,Wunderground v.1.15,2013-03-28 07:15:00,
2013-03-28 03:20:00,31.3,27.3,30.22,West,281,0.0,0.0,85,0.00,,,0.00,Wunderground v.1.15,2013-03-28 07:20:00,
2013-03-28 03:25:00,31.4,27.7,30.22,West,281,0.0,0.0,86,0.00,,,0.00,Wunderground v.1.15,2013-03-28 07:25:00,
2013-03-28 03:30:00,31.8,28.1,30.22,West,281,0.0,0.0,86,0.00,,,0.00,Wunderground v.1.15,2013-03-28 07:30:00,
2013-03-28 03:35:00,32.1,28.4,30.22,West,281,0.0,0.0,86,0.00,,,0.00,Wunderground v.1.15,2013-03-28 07:35:00,
2013-03-28 03:40:00,32.3,28.9,30.22,West,281,0.0,0.0,87,0.00,,,0.00,Wunderground v.1.15,2013-03-28 07:40:00,
2013-03-28 03:45:00,32.5,29.1,30.22,West,281,0.0,0.0,87,0.00,,,0.00,Wunderground v.1.15,2013-03-28 07:45:00,
2013-03-28 03:50:00,32.7,29.3,30.22,West,281,0.0,0.0,87,0.00,,,0.00,Wunderground v.1.15,2013-03-28 07:50:00,
2013-03-28 03:55:00,33.0,29.6,30.21,West,281,0.0,0.0,87,0.00,,,0.00,Wunderground v.1.15,2013-03-28 07:55:00,
2013-03-28 04:00:00,33.1,29.7,30.21,West,281,0.0,0.0,87,0.00,,,0.00,Wunderground v.1.15,2013-03-28 08:00:00,
2013-03-28 04:05:00,33.0,29.6,30.21,West,281,0.0,0.0,87,0.00,,,0.00,Wunderground v.1.15,2013-03-28 08:05:00,
2013-03-28 04:10:00,32.9,29.5,30.21,West,281,0.0,0.0,87,0.00,,,0.00,Wunderground v.1.15,2013-03-28 08:10:00,
2013-03-28 04:20:00,32.2,28.8,30.21,West,281,0.0,0.0,87,0.00,,,0.00,Wunderground v.1.15,2013-03-28 08:20:00,
2013-03-28 04:25:00,31.9,28.5,30.21,West,281,0.0,0.0,87,0.00,,,0.00,Wunderground v.1.15,2013-03-28 08:25:00,
2013-03-28 04:30:00,31.7,28.3,30.21,West,281,0.0,0.0,87,0.00,,,0.00,Wunderground v.1.15,2013-03-28 08:30:00,
2013-03-28 04:35:00,31.4,28.0,30.21,West,281,0.0,0.0,87,0.00,,,0.00,Wunderground v.1.15,2013-03-28 08:35:00,
2013-03-28 04:40:00,31.3,27.9,30.21,West,281,0.0,0.0,87,0.00,,,0.00,Wunderground v.1.15,2013-03-28 08:40:00,
2013-03-28 04:45:00,31.3,28.2,30.22,West,281,0.0,0.0,88,0.00,,,0.00,Wunderground v.1.15,2013-03-28 08:45:00,
2013-03-28 04:50:00,31.3,27.9,30.22,West,281,0.0,0.0,87,0.00,,,0.00,Wunderground v.1.15,2013-03-28 08:50:00,
2013-03-28 04:55:00,31.6,28.5,30.22,West,281,0.0,0.0,88,0.00,,,0.00,Wunderground v.1.15,2013-03-28 08:55:00,
2013-03-28 05:00:00,32.0,28.8,30.22,West,281,0.0,0.0,88,0.00,,,0.00,Wunderground v.1.15,2013-03-28 09:00:00,
2013-03-28 05:05:00,32.3,29.1,30.22,West,281,0.0,0.0,88,0.00,,,0.00,Wunderground v.1.15,2013-03-28 09:05:00,
2013-03-28 05:10:00,32.6,29.4,30.22,West,281,0.0,0.0,88,0.00,,,0.00,Wunderground v.1.15,2013-03-28 09:10:00,
2013-03-28 05:15:00,32.8,29.6,30.22,West,281,0.0,0.0,88,0.00,,,0.00,Wunderground v.1.15,2013-03-28 09:15:00,
2013-03-28 05:20:00,32.7,29.5,30.22,West,281,0.0,0.0,88,0.00,,,0.00,Wunderground v.1.15,2013-03-28 09:20:00,
2013-03-28 05:25:00,32.7,29.5,30.22,West,281,0.0,0.0,88,0.00,,,0.00,Wunderground v.1.15,2013-03-28 09:25:00,
2013-03-28 05:30:00,32.6,29.4,30.23,West,281,0.0,0.0,88,0.00,,,0.00,Wunderground v.1.15,2013-03-28 09:30:00,
2013-03-28 05:35:00,32.4,29.2,30.23,West,281,0.0,0.0,88,0.00,,,0.00,Wunderground v.1.15,2013-03-28 09:35:00,
2013-03-28 05:40:00,32.3,29.1,30.23,West,281,0.0,0.0,88,0.00,,,0.00,Wunderground v.1.15,2013-03-28 09:40:00,
2013-03-28 05:50:00,31.7,28.6,30.23,West,281,0.0,0.0,88,0.00,,,0.00,Wunderground v.1.15,2013-03-28 09:50:00,
2013-03-28 06:00:00,31.1,28.0,30.23,West,281,0.0,0.0,88,0.00,,,0.00,Wunderground v.1.15,2013-03-28 10:00:00,
2013-03-28 06:05:00,30.7,27.6,30.23,West,281,0.0,0.0,88,0.00,,,0.00,Wunderground v.1.15,2013-03-28 10:05:00,
2013-03-28 06:15:00,30.0,26.9,30.23,West,281,0.0,0.0,88,0.00,,,0.00,Wunderground v.1.15,2013-03-28 10:15:00,
2013-03-28 06:20:00,29.8,26.7,30.23,West,281,0.0,0.0,88,0.00,,,0.00,Wunderground v.1.15,2013-03-28 10:20:00,
2013-03-28 06:25:00,29.6,26.5,30.23,West,281,0.0,0.0,88,0.00,,,0.00,Wunderground v.1.15,2013-03-28 10:25:00,
2013-03-28 06:30:00,29.5,26.4,30.23,West,281,0.0,0.0,88,0.00,,,0.00,Wunderground v.1.15,2013-03-28 10:30:00,
2013-03-28 06:35:00,29.4,26.6,30.23,West,281,0.0,0.0,89,0.00,,,0.00,Wunderground v.1.15,2013-03-28 10:35:00,
2013-03-28 06:40:00,29.2,26.1,30.23,West,281,0.0,0.0,88,0.00,,,0.00,Wunderground v.1.15,2013-03-28 10:40:00,
2013-03-28 06:45:00,28.9,25.8,30.23,West,281,0.0,0.0,88,0.00,,,0.00,Wunderground v.1.15,2013-03-28 10:45:00,
2013-03-28 06:50:00,28.8,25.7,30.23,West,281,0.0,0.0,88,0.00,,,0.00,Wunderground v.1.15,2013-03-28 10:50:00,
2013-03-28 06:55:00,28.6,25.5,30.23,West,281,0.0,0.0,88,0.00,,,0.00,Wunderground v.1.15,2013-03-28 10:55:00,
2013-03-28 07:00:00,28.4,25.6,30.24,West,281,0.0,0.0,89,0.00,,,0.00,Wunderground v.1.15,2013-03-28 11:00:00,
2013-03-28 07:05:00,28.4,25.6,30.23,West,281,0.0,0.0,89,0.00,,,0.00,Wunderground v.1.15,2013-03-28 11:05:00,
2013-03-28 07:10:00,28.4,25.6,30.24,West,281,0.0,0.0,89,0.00,,,0.00,Wunderground v.1.15,2013-03-28 11:10:00,
2013-03-28 07:15:00,28.5,25.7,30.24,West,281,0.0,0.0,89,0.00,,,0.00,Wunderground v.1.15,2013-03-28 11:15:00,
2013-03-28 07:20:00,28.5,25.7,30.24,West,281,0.0,0.0,89,0.00,,,0.00,Wunderground v.1.15,2013-03-28 11:20:00,
2013-03-28 07:25:00,28.6,25.8,30.24,West,281,0.0,0.0,89,0.00,,,0.00,Wunderground v.1.15,2013-03-28 11:25:00,
2013-03-28 07:30:00,28.7,25.9,30.24,West,281,0.0,0.0,89,0.00,,,0.00,Wunderground v.1.15,2013-03-28 11:30:00,
2013-03-28 07:35:00,28.7,25.9,30.24,West,281,0.0,0.0,89,0.00,,,0.00,Wunderground v.1.15,2013-03-28 11:35:00,
2013-03-28 07:40:00,28.8,26.0,30.24,West,281,0.0,0.0,89,0.00,,,0.00,Wunderground v.1.15,2013-03-28 11:40:00,
2013-03-28 07:50:00,29.2,26.6,30.24,West,281,0.0,0.0,90,0.00,,,0.00,Wunderground v.1.15,2013-03-28 11:50:00,
2013-03-28 07:55:00,29.7,27.1,30.24,West,281,0.0,0.0,90,0.00,,,0.00,Wunderground v.1.15,2013-03-28 11:55:00,
2013-03-28 08:00:00,30.6,28.0,30.24,West,281,0.0,0.0,90,0.00,,,0.00,Wunderground v.1.15,2013-03-28 12:00:00,
2013-03-28 08:05:00,31.6,29.3,30.25,West,281,0.0,0.0,91,0.00,,,0.00,Wunderground v.1.15,2013-03-28 12:05:00,
2013-03-28 08:10:00,32.8,30.5,30.25,West,281,0.0,0.0,91,0.00,,,0.00,Wunderground v.1.15,2013-03-28 12:10:00,
2013-03-28 08:15:00,34.1,31.7,30.25,West,281,0.0,0.0,91,0.00,,,0.00,Wunderground v.1.15,2013-03-28 12:15:00,
2013-03-28 08:20:00,35.6,33.5,30.25,West,281,0.0,0.0,92,0.00,,,0.00,Wunderground v.1.15,2013-03-28 12:20:00,
2013-03-28 08:25:00,37.1,35.0,30.25,West,281,0.0,0.0,92,0.00,,,0.00,Wunderground v.1.15,2013-03-28 12:25:00,
2013-03-28 08:30:00,38.7,36.6,30.25,West,281,0.0,0.0,92,0.00,,,0.00,Wunderground v.1.15,2013-03-28 12:30:00,
2013-03-28 08:35:00,39.9,37.8,30.26,WSW,257,0.0,0.0,92,0.00,,,0.00,Wunderground v.1.15,2013-03-28 12:35:00,
2013-03-28 08:40:00,41.0,38.9,30.26,NNW,336,0.0,0.0,92,0.00,,,0.00,Wunderground v.1.15,2013-03-28 12:40:00,
2013-03-28 08:45:00,41.8,39.6,30.26,NNW,336,0.0,0.0,92,0.00,,,0.00,Wunderground v.1.15,2013-03-28 12:45:00,
2013-03-28 08:50:00,42.7,40.5,30.27,NNW,336,0.0,0.0,92,0.00,,,0.00,Wunderground v.1.15,2013-03-28 12:50:00,
2013-03-28 08:55:00,43.6,41.4,30.27,NNW,336,0.0,0.0,92,0.00,,,0.00,Wunderground v.1.15,2013-03-28 12:55:00,
2013-03-28 09:00:00,44.5,42.3,30.27,NNW,336,0.0,0.0,92,0.00,,,0.00,Wunderground v.1.15,2013-03-28 13:00:00,
2013-03-28 09:05:00,45.6,43.1,30.27,NNW,336,1.0,2.0,91,0.00,,,0.00,Wunderground v.1.15,2013-03-28 13:05:00,
2013-03-28 09:15:00,47.4,44.3,30.27,NNW,336,1.0,2.0,89,0.00,,,0.00,Wunderground v.1.15,2013-03-28 13:15:00,
2013-03-28 09:20:00,48.5,45.1,30.27,NNW,336,0.0,3.0,88,0.00,,,0.00,Wunderground v.1.15,2013-03-28 13:20:00,
2013-03-28 09:25:00,49.4,45.4,30.27,NNW,336,2.0,3.0,86,0.00,,,0.00,Wunderground v.1.15,2013-03-28 13:25:00,
2013-03-28 09:30:00,50.5,45.5,30.27,NNW,336,3.0,3.0,83,0.00,,,0.00,Wunderground v.1.15,2013-03-28 13:30:00,
2013-03-28 09:35:00,51.4,44.8,30.27,NNW,336,3.0,3.0,78,0.00,,,0.00,Wunderground v.1.15,2013-03-28 13:35:00,
2013-03-28 09:40:00,52.3,44.6,30.27,NNW,336,4.0,4.0,75,0.00,,,0.00,Wunderground v.1.15,2013-03-28 13:40:00,
2013-03-28 09:45:00,53.1,44.3,30.27,NNW,346,4.0,4.0,72,0.00,,,0.00,Wunderground v.1.15,2013-03-28 13:45:00,
2013-03-28 09:50:00,53.7,43.8,30.27,North,355,4.0,4.0,69,0.00,,,0.00,Wunderground v.1.15,2013-03-28 13:50:00,
2013-03-28 09:55:00,54.4,42.5,30.28,North,360,5.0,5.0,64,0.00,,,0.00,Wunderground v.1.15,2013-03-28 13:55:00,
2013-03-28 10:00:00,55.0,42.2,30.28,North,360,5.0,5.0,62,0.00,,,0.00,Wunderground v.1.15,2013-03-28 14:00:00,
2013-03-28 10:05:00,55.5,41.8,30.28,North,351,5.0,5.0,60,0.00,,,0.00,Wunderground v.1.15,2013-03-28 14:05:00,
2013-03-28 10:10:00,56.2,41.6,30.28,NNW,331,5.0,5.0,58,0.00,,,0.00,Wunderground v.1.15,2013-03-28 14:10:00,
2013-03-28 10:15:00,56.9,41.4,30.28,NNW,328,5.0,5.0,56,0.00,,,0.00,Wunderground v.1.15,2013-03-28 14:15:00,
2013-03-28 10:20:00,57.3,40.8,30.28,NNW,336,4.0,4.0,54,0.00,,,0.00,Wunderground v.1.15,2013-03-28 14:20:00,
2013-03-28 10:25:00,58.2,40.6,30.28,NNW,336,4.0,4.0,52,0.00,,,0.00,Wunderground v.1.15,2013-03-28 14:25:00,
2013-03-28 10:30:00,59.0,40.9,30.28,NNW,331,4.0,5.0,51,0.00,,,0.00,Wunderground v.1.15,2013-03-28 14:30:00,
2013-03-28 10:35:00,59.0,39.9,30.28,NNW,336,4.0,5.0,49,0.00,,,0.00,Wunderground v.1.15,2013-03-28 14:35:00,
2013-03-28 10:40:00,59.0,39.9,30.28,NNW,342,4.0,4.0,49,0.00,,,0.00,Wunderground v.1.15,2013-03-28 14:40:00,
2013-03-28 10:45:00,59.7,40.5,30.28,NNW,342,4.0,4.0,49,0.00,,,0.00,Wunderground v.1.15,2013-03-28 14:45:00,
2013-03-28 10:50:00,60.3,40.5,30.28,NNW,346,3.0,4.0,48,0.00,,,0.00,Wunderground v.1.15,2013-03-28 14:50:00,
2013-03-28 11:00:00,60.5,37.9,30.27,NNE,22,5.0,7.0,43,0.00,,,0.00,Wunderground v.1.15,2013-03-28 15:00:00,
2013-03-28 11:05:00,60.4,38.9,30.28,North,9,5.0,9.0,45,0.00,,,0.00,Wunderground v.1.15,2013-03-28 15:05:00,
2013-03-28 11:10:00,60.8,37.5,30.28,North,360,6.0,8.0,42,0.00,,,0.00,Wunderground v.1.15,2013-03-28 15:10:00,
2013-03-28 11:15:00,60.7,35.6,30.28,North,9,7.0,11.0,39,0.00,,,0.00,Wunderground v.1.15,2013-03-28 15:15:00,
2013-03-28 11:25:00,61.4,36.8,30.28,NNW,345,7.0,9.0,40,0.00,,,0.00,Wunderground v.1.15,2013-03-28 15:25:00,
2013-03-28 11:30:00,61.8,37.8,30.27,NNE,14,7.0,7.0,41,0.00,,,0.00,Wunderground v.1.15,2013-03-28 15:30:00,
2013-03-28 11:40:00,62.0,38.0,30.27,NE,34,4.0,5.0,41,0.00,,,0.00,Wunderground v.1.15,2013-03-28 15:40:00,
2013-03-28 11:45:00,61.9,37.9,30.27,NNE,32,3.0,5.0,41,0.00,,,0.00,Wunderground v.1.15,2013-03-28 15:45:00,
2013-03-28 11:50:00,62.2,37.6,30.27,North,360,5.0,5.0,40,0.00,,,0.00,Wunderground v.1.15,2013-03-28 15:50:00,
2013-03-28 12:00:00,62.8,38.1,30.27,NNW,333,3.0,3.0,40,0.00,,,0.00,Wunderground v.1.15,2013-03-28 16:00:00,
2013-03-28 12:05:00,63.1,38.4,30.27,NNE,20,4.0,7.0,40,0.00,,,0.00,Wunderground v.1.15,2013-03-28 16:05:00,
2013-03-28 12:15:00,64.4,38.2,30.26,North,350,5.0,5.0,38,0.00,,,0.00,Wunderground v.1.15,2013-03-28 16:15:00,
2013-03-28 12:20:00,64.5,39.0,30.26,North,355,4.0,4.0,39,0.00,,,0.00,Wunderground v.1.15,2013-03-28 16:20:00,
2013-03-28 12:25:00,64.5,36.9,30.26,NE,36,5.0,5.0,36,0.00,,,0.00,Wunderground v.1.15,2013-03-28 16:25:00,
2013-03-28 12:30:00,64.2,38.0,30.26,NNE,16,4.0,4.0,38,0.00,,,0.00,Wunderground v.1.15,2013-03-28 16:30:00,
2013-03-28 12:35:00,65.0,37.4,30.26,North,355,3.0,7.0,36,0.00,,,0.00,Wunderground v.1.15,2013-03-28 16:35:00,
2013-03-28 12:40:00,65.4,36.3,30.25,NW,321,5.0,8.0,34,0.00,,,0.00,Wunderground v.1.15,2013-03-28 16:40:00,
2013-03-28 12:45:00,65.8,35.9,30.25,North,350,5.0,8.0,33,0.00,,,0.00,Wunderground v.1.15,2013-03-28 16:45:00,
2013-03-28 12:50:00,65.8,36.6,30.25,NNE,15,5.0,5.0,34,0.00,,,0.00,Wunderground v.1.15,2013-03-28 16:50:00,
2013-03-28 12:55:00,66.2,35.4,30.25,North,360,3.0,5.0,32,0.00,,,0.00,Wunderground v.1.15,2013-03-28 16:55:00,
2013-03-28 13:00:00,66.6,35.0,30.25,North,360,4.0,5.0,31,0.00,,,0.00,Wunderground v.1.15,2013-03-28 17:00:00,
2013-03-28 13:05:00,67.5,35.8,30.25,North,350,4.0,5.0,31,0.00,,,0.00,Wunderground v.1.15,2013-03-28 17:05:00,
2013-03-28 13:10:00,67.2,35.5,30.25,North,349,4.0,5.0,31,0.00,,,0.00,Wunderground v.1.15,2013-03-28 17:10:00,
2013-03-28 13:20:00,67.5,34.1,30.24,NNE,15,5.0,5.0,29,0.00,,,0.00,Wunderground v.1.15,2013-03-28 17:20:00,
2013-03-28 13:25:00,67.7,34.3,30.24,NW,323,5.0,5.0,29,0.00,,,0.00,Wunderground v.1.15,2013-03-28 17:25:00,
2013-03-28 13:30:00,67.8,36.0,30.24,NNW,342,3.0,5.0,31,0.00,,,0.00,Wunderground v.1.15,2013-03-28 17:30:00,
2013-03-28 13:35:00,67.6,35.0,30.24,NNW,342,4.0,9.0,30,0.00,,,0.00,Wunderground v.1.15,2013-03-28 17:35:00,
2013-03-28 13:40:00,68.3,35.6,30.24,WNW,300,5.0,6.0,30,0.00,,,0.00,Wunderground v.1.15,2013-03-28 17:40:00,
2013-03-28 13:45:00,68.3,34.8,30.24,NNE,15,4.0,6.0,29,0.00,,,0.00,Wunderground v.1.15,2013-03-28 17:45:00,
2013-03-28 13:50:00,67.9,35.3,30.23,NNE,16,2.0,2.0,30,0.00,,,0.00,Wunderground v.1.15,2013-03-28 17:50:00,
2013-03-28 13:55:00,68.0,36.2,30.23,NNE,13,1.0,6.0,31,0.00,,,0.00,Wunderground v.1.15,2013-03-28 17:55:00,
2013-03-28 14:00:00,68.0,34.5,30.23,NNE,21,3.0,4.0,29,0.00,,,0.00,Wunderground v.1.15,2013-03-28 18:00:00,
2013-03-28 14:05:00,68.3,34.8,30.22,NNW,336,4.0,5.0,29,0.00,,,0.00,Wunderground v.1.15,2013-03-28 18:05:00,
2013-03-28 14:10:00,68.4,34.9,30.22,NNE,21,5.0,6.0,29,0.00,,,0.00,Wunderground v.1.15,2013-03-28 18:10:00,
2013-03-28 14:15:00,68.6,35.1,30.22,NNE,15,4.0,6.0,29,0.00,,,0.00,Wunderground v.1.15,2013-03-28 18:15:00,
2013-03-28 14:20:00,69.1,37.2,30.22,SE,142,2.0,2.0,31,0.00,,,0.00,Wunderground v.1.15,2013-03-28 18:20:00,
2013-03-28 14:30:00,70.4,34.8,30.21,NNW,329,4.0,4.0,27,0.00,,,0.00,Wunderground v.1.15,2013-03-28 18:30:00,
2013-03-28 14:35:00,70.8,35.1,30.21,NNW,342,5.0,6.0,27,0.00,,,0.00,Wunderground v.1.15,2013-03-28 18:35:00,
2013-03-28 14:40:00,71.0,33.4,30.21,North,351,4.0,4.0,25,0.00,,,0.00,Wunderground v.1.15,2013-03-28 18:40:00,
2013-03-28 14:45:00,71.3,34.6,30.20,North,349,4.0,4.0,26,0.00,,,0.00,Wunderground v.1.15,2013-03-28 18:45:00,
2013-03-28 14:50:00,71.3,33.6,30.20,North,355,4.0,4.0,25,0.00,,,0.00,Wunderground v.1.15,2013-03-28 18:50:00,
2013-03-28 14:55:00,70.8,34.2,30.19,NNW,336,4.0,7.0,26,0.00,,,0.00,Wunderground v.1.15,2013-03-28 18:55:00,
2013-03-28 15:00:00,71.0,33.4,30.19,NNW,330,4.0,5.0,25,0.00,,,0.00,Wunderground v.1.15,2013-03-28 19:00:00,
2013-03-28 15:05:00,71.1,33.5,30.19,North,355,3.0,6.0,25,0.00,,,0.00,Wunderground v.1.15,2013-03-28 19:05:00,
2013-03-28 15:10:00,71.2,32.5,30.19,North,360,4.0,5.0,24,0.00,,,0.00,Wunderground v.1.15,2013-03-28 19:10:00,
2013-03-28 15:15:00,70.7,34.1,30.18,North,355,5.0,8.0,26,0.00,,,0.00,Wunderground v.1.15,2013-03-28 19:15:00,
2013-03-28 15:20:00,70.8,33.2,30.18,NNW,348,4.0,8.0,25,0.00,,,0.00,Wunderground v.1.15,2013-03-28 19:20:00,
2013-03-28 15:25:00,71.1,33.5,30.18,NNW,336,4.0,8.0,25,0.00,,,0.00,Wunderground v.1.15,2013-03-28 19:25:00,
2013-03-28 15:30:00,71.8,35.0,30.18,North,355,2.0,4.0,26,0.00,,,0.00,Wunderground v.1.15,2013-03-28 19:30:00,
2013-03-28 15:35:00,71.4,33.7,30.18,North,11,3.0,4.0,25,0.00,,,0.00,Wunderground v.1.15,2013-03-28 19:35:00,
2013-03-28 15:40:00,70.7,35.1,30.17,NNE,19,4.0,7.0,27,0.00,,,0.00,Wunderground v.1.15,2013-03-28 19:40:00,
2013-03-28 15:45:00,70.4,34.8,30.17,NNE,13,5.0,7.0,27,0.00,,,0.00,Wunderground v.1.15,2013-03-28 19:45:00,
2013-03-28 15:50:00,70.5,33.9,30.17,North,5,4.0,6.0,26,0.00,,,0.00,Wunderground v.1.15,2013-03-28 19:50:00,
2013-03-28 15:55:00,71.0,34.4,30.17,North,355,4.0,6.0,26,0.00,,,0.00,Wunderground v.1.15,2013-03-28 19:55:00,
2013-03-28 16:00:00,71.0,34.4,30.16,North,9,7.0,7.0,26,0.00,,,0.00,Wunderground v.1.15,2013-03-28 20:00:00,
2013-03-28 16:05:00,70.8,34.2,30.16,NNW,336,8.0,8.0,26,0.00,,,0.00,Wunderground v.1.15,2013-03-28 20:05:00,
2013-03-28 16:15:00,72.0,35.2,30.16,North,350,4.0,6.0,26,0.00,,,0.00,Wunderground v.1.15,2013-03-28 20:15:00,
2013-03-28 16:20:00,71.7,35.9,30.16,NNE,17,4.0,4.0,27,0.00,,,0.00,Wunderground v.1.15,2013-03-28 20:20:00,
2013-03-28 16:25:00,71.1,34.5,30.16,North,5,3.0,6.0,26,0.00,,,0.00,Wunderground v.1.15,2013-03-28 20:25:00,
2013-03-28 16:30:00,70.7,34.1,30.16,North,360,5.0,5.0,26,0.00,,,0.00,Wunderground v.1.15,2013-03-28 20:30:00,
2013-03-28 16:40:00,70.6,34.0,30.16,North,360,1.0,1.0,26,0.00,,,0.00,Wunderground v.1.15,2013-03-28 20:40:00,
2013-03-28 16:45:00,71.3,34.6,30.16,NNW,331,1.0,9.0,26,0.00,,,0.00,Wunderground v.1.15,2013-03-28 20:45:00,
2013-03-28 16:50:00,72.1,35.3,30.16,NNW,331,3.0,3.0,26,0.00,,,0.00,Wunderground v.1.15,2013-03-28 20:50:00,
2013-03-28 16:55:00,72.2,34.4,30.16,NNW,339,3.0,9.0,25,0.00,,,0.00,Wunderground v.1.15,2013-03-28 20:55:00,
2013-03-28 17:00:00,72.2,34.4,30.16,NNW,342,3.0,3.0,25,0.00,,,0.00,Wunderground v.1.15,2013-03-28 21:00:00,
2013-03-28 17:05:00,72.6,34.7,30.16,NNW,331,2.0,3.0,25,0.00,,,0.00,Wunderground v.1.15,2013-03-28 21:05:00,
2013-03-28 17:10:00,72.5,33.6,30.16,NNW,341,3.0,7.0,24,0.00,,,0.00,Wunderground v.1.15,2013-03-28 21:10:00,
2013-03-28 17:15:00,72.5,34.7,30.16,NNW,331,3.0,7.0,25,0.00,,,0.00,Wunderground v.1.15,2013-03-28 21:15:00,
2013-03-28 17:20:00,72.4,34.6,30.16,North,360,4.0,7.0,25,0.00,,,0.00,Wunderground v.1.15,2013-03-28 21:20:00,
2013-03-28 17:25:00,71.5,33.8,30.16,NNE,26,6.0,7.0,25,0.00,,,0.00,Wunderground v.1.15,2013-03-28 21:25:00,
2013-03-28 17:30:00,70.9,33.3,30.16,North,5,7.0,7.0,25,0.00,,,0.00,Wunderground v.1.15,2013-03-28 21:30:00,
2013-03-28 17:40:00,70.8,33.2,30.16,North,360,4.0,4.0,25,0.00,,,0.00,Wunderground v.1.15,2013-03-28 21:40:00,
2013-03-28 17:45:00,70.8,33.2,30.16,NNE,19,5.0,6.0,25,0.00,,,0.00,Wunderground v.1.15,2013-03-28 21:45:00,
2013-03-28 17:50:00,70.7,34.1,30.16,NNW,330,6.0,6.0,26,0.00,,,0.00,Wunderground v.1.15,2013-03-28 21:50:00,
2013-03-28 17:55:00,70.7,34.1,30.17,NNE,16,5.0,6.0,26,0.00,,,0.00,Wunderground v.1.15,2013-03-28 21:55:00,
2013-03-28 18:00:00,70.7,34.1,30.17,North,355,3.0,3.0,26,0.00,,,0.00,Wunderground v.1.15,2013-03-28 22:00:00,
2013-03-28 18:05:00,70.8,34.2,30.17,North,360,4.0,4.0,26,0.00,,,0.00,Wunderground v.1.15,2013-03-28 22:05:00,
2013-03-28 18:10:00,70.5,33.0,30.17,North,360,4.0,5.0,25,0.00,,,0.00,Wunderground v.1.15,2013-03-28 22:10:00,
2013-03-28 18:15:00,70.5,33.0,30.17,North,355,3.0,5.0,25,0.00,,,0.00,Wunderground v.1.15,2013-03-28 22:15:00,
2013-03-28 18:25:00,70.6,34.0,30.17,North,5,1.0,1.0,26,0.00,,,0.00,Wunderground v.1.15,2013-03-28 22:25:00,
2013-03-28 18:30:00,70.2,33.7,30.17,North,360,3.0,3.0,26,0.00,,,0.00,Wunderground v.1.15,2013-03-28 22:30:00,
2013-03-28 18:35:00,70.1,33.6,30.17,NW,321,2.0,3.0,26,0.00,,,0.00,Wunderground v.1.15,2013-03-28 22:35:00,
2013-03-28 18:40:00,70.2,33.7,30.17,NNW,327,1.0,1.0,26,0.00,,,0.00,Wunderground v.1.15,2013-03-28 22:40:00,
2013-03-28 18:45:00,69.9,33.4,30.18,NNW,327,1.0,3.0,26,0.00,,,0.00,Wunderground v.1.15,2013-03-28 22:45:00,
2013-03-28 18:50:00,69.5,33.1,30.18,NNW,327,2.0,2.0,26,0.00,,,0.00,Wunderground v.1.15,2013-03-28 22:50:00,
2013-03-28 19:00:00,69.0,33.6,30.18,NNW,327,1.0,1.0,27,0.00,,,0.00,Wunderground v.1.15,2013-03-28 23:00:00,
2013-03-28 19:05:00,68.6,33.3,30.18,NNW,327,1.0,1.0,27,0.00,,,0.00,Wunderground v.1.15,2013-03-28 23:05:00,
2013-03-28 19:15:00,67.6,33.3,30.18,NNW,327,0.0,1.0,28,0.00,,,0.00,Wunderground v.1.15,2013-03-28 23:15:00,
2013-03-28 19:20:00,67.0,33.7,30.18,NNW,328,0.0,0.0,29,0.00,,,0.00,Wunderground v.1.15,2013-03-28 23:20:00,
2013-03-28 19:30:00,65.8,35.1,30.19,NNW,328,0.0,0.0,32,0.00,,,0.00,Wunderground v.1.15,2013-03-28 23:30:00,
2013-03-28 19:35:00,64.9,35.1,30.19,NNW,328,0.0,0.0,33,0.00,,,0.00,Wunderground v.1.15,2013-03-28 23:35:00,
2013-03-28 19:40:00,63.9,35.0,30.19,NNW,327,0.0,0.0,34,0.00,,,0.00,Wunderground v.1.15,2013-03-28 23:40:00,
2013-03-28 19:45:00,63.1,35.0,30.19,NNW,328,0.0,0.0,35,0.00,,,0.00,Wunderground v.1.15,2013-03-28 23:45:00,
2013-03-28 19:50:00,62.1,36.2,30.19,NNW,328,0.0,0.0,38,0.00,,,0.00,Wunderground v.1.15,2013-03-28 23:50:00,
2013-03-28 19:55:00,61.2,37.9,30.19,NNW,327,0.0,0.0,42,0.00,,,0.00,Wunderground v.1.15,2013-03-28 23:55:00,
2013-03-28 20:00:00,60.0,35.6,30.20,NNW,328,0.0,0.0,40,0.00,,,0.00,Wunderground v.1.15,2013-03-29 00:00:00,
2013-03-28 20:05:00,59.0,35.3,30.19,NNW,328,0.0,0.0,41,0.00,,,0.00,Wunderground v.1.15,2013-03-29 00:05:00,
2013-03-28 20:10:00,57.9,38.8,30.19,NNW,327,0.0,0.0,49,0.00,,,0.00,Wunderground v.1.15,2013-03-29 00:10:00,
2013-03-28 20:15:00,57.0,38.5,30.20,NNW,328,0.0,0.0,50,0.00,,,0.00,Wunderground v.1.15,2013-03-29 00:15:00,
2013-03-28 20:20:00,56.0,39.1,30.20,NNW,328,0.0,0.0,53,0.00,,,0.00,Wunderground v.1.15,2013-03-29 00:20:00,
2013-03-28 20:30:00,54.1,38.3,30.20,NNW,328,0.0,0.0,55,0.00,,,0.00,Wunderground v.1.15,2013-03-29 00:30:00,
2013-03-28 20:35:00,53.1,37.8,30.20,NNW,328,0.0,0.0,56,0.00,,,0.00,Wunderground v.1.15,2013-03-29 00:35:00,
2013-03-28 20:40:00,52.2,37.4,30.20,NNW,327,0.0,0.0,57,0.00,,,0.00,Wunderground v.1.15,2013-03-29 00:40:00,
2013-03-28 20:45:00,51.5,37.6,30.20,NNW,327,0.0,0.0,59,0.00,,,0.00,Wunderground v.1.15,2013-03-29 00:45:00,
2013-03-28 20:50:00,50.9,38.7,30.20,NNW,328,0.0,0.0,63,0.00,,,0.00,Wunderground v.1.15,2013-03-29 00:50:00,
2013-03-28 20:55:00,50.2,37.7,30.21,NNW,327,0.0,0.0,62,0.00,,,0.00,Wunderground v.1.15,2013-03-29 00:55:00,
2013-03-28 21:01:00,49.3,36.8,30.21,NNW,328,0.0,0.0,62,0.00,,,0.00,Wunderground v.1.15,2013-03-29 01:01:00,
2013-03-28 21:05:00,48.7,37.1,30.21,NNW,328,0.0,0.0,64,0.00,,,0.00,Wunderground v.1.15,2013-03-29 01:05:00,
2013-03-28 21:10:00,48.5,36.9,30.22,NNW,340,1.0,2.0,64,0.00,,,0.00,Wunderground v.1.15,2013-03-29 01:10:00,
2013-03-28 21:15:00,49.6,37.9,30.22,NNW,340,1.0,1.0,64,0.00,,,0.00,Wunderground v.1.15,2013-03-29 01:15:00,
2013-03-28 21:20:00,50.4,37.9,30.22,NNW,340,0.0,1.0,62,0.00,,,0.00,Wunderground v.1.15,2013-03-29 01:20:00,
2013-03-28 21:25:00,50.8,38.7,30.23,NNW,340,0.0,0.0,63,0.00,,,0.00,Wunderground v.1.15,2013-03-29 01:25:00,
2013-03-28 21:30:00,50.9,38.7,30.23,NNW,330,1.0,1.0,63,0.00,,,0.00,Wunderground v.1.15,2013-03-29 01:30:00,
2013-03-28 21:35:00,51.3,39.1,30.24,NNW,327,2.0,2.0,63,0.00,,,0.00,Wunderground v.1.15,2013-03-29 01:35:00,
2013-03-28 21:40:00,52.3,40.5,30.24,NW,323,2.0,4.0,64,0.00,,,0.00,Wunderground v.1.15,2013-03-29 01:40:00,
2013-03-28 21:45:00,53.7,41.8,30.24,NW,323,2.0,2.0,64,0.00,,,0.00,Wunderground v.1.15,2013-03-29 01:45:00,
2013-03-28 21:50:00,55.1,42.3,30.24,NNW,327,1.0,2.0,62,0.00,,,0.00,Wunderground v.1.15,2013-03-29 01:50:00,
2013-03-28 21:55:00,55.7,42.5,30.24,NNW,327,1.0,1.0,61,0.00,,,0.00,Wunderground v.1.15,2013-03-29 01:55:00,
2013-03-28 22:00:00,55.6,42.4,30.24,NNW,327,0.0,0.0,61,0.00,,,0.00,Wunderground v.1.15,2013-03-29 02:00:00,
2013-03-28 22:05:00,55.2,42.4,30.25,NNW,327,0.0,0.0,62,0.00,,,0.00,Wunderground v.1.15,2013-03-29 02:05:00,
2013-03-28 22:10:00,54.5,41.7,30.25,NNW,327,0.0,0.0,62,0.00,,,0.00,Wunderground v.1.15,2013-03-29 02:10:00,
2013-03-28 22:15:00,53.8,41.5,30.25,NNW,327,0.0,0.0,63,0.00,,,0.00,Wunderground v.1.15,2013-03-29 02:15:00,
2013-03-28 22:20:00,53.1,41.2,30.25,NNW,327,0.0,0.0,64,0.00,,,0.00,Wunderground v.1.15,2013-03-29 02:20:00,
2013-03-28 22:25:00,52.3,40.9,30.25,NNW,327,0.0,0.0,65,0.00,,,0.00,Wunderground v.1.15,2013-03-29 02:25:00,
2013-03-28 22:30:00,51.3,39.9,30.25,NNW,327,0.0,0.0,65,0.00,,,0.00,Wunderground v.1.15,2013-03-29 02:30:00,
2013-03-28 22:35:00,50.7,39.7,30.25,NNW,327,0.0,0.0,66,0.00,,,0.00,Wunderground v.1.15,2013-03-29 02:35:00,
2013-03-28 22:40:00,50.1,39.6,30.25,NNW,327,0.0,0.0,67,0.00,,,0.00,Wunderground v.1.15,2013-03-29 02:40:00,
2013-03-28 22:50:00,49.1,39.0,30.25,NNW,327,0.0,0.0,68,0.00,,,0.00,Wunderground v.1.15,2013-03-29 02:50:00,
2013-03-28 22:55:00,48.4,39.1,30.25,NNW,327,0.0,0.0,70,0.00,,,0.00,Wunderground v.1.15,2013-03-29 02:55:00,
2013-03-28 23:00:00,47.8,38.5,30.25,NNW,327,0.0,0.0,70,0.00,,,0.00,Wunderground v.1.15,2013-03-29 03:00:00,
2013-03-28 23:05:00,46.7,37.8,30.26,NNW,327,0.0,0.0,71,0.00,,,0.00,Wunderground v.1.15,2013-03-29 03:05:00,
2013-03-28 23:10:00,45.9,37.0,30.25,NNW,327,0.0,0.0,71,0.00,,,0.00,Wunderground v.1.15,2013-03-29 03:10:00,
2013-03-28 23:15:00,45.2,36.7,30.26,NNW,327,0.0,0.0,72,0.00,,,0.00,Wunderground v.1.15,2013-03-29 03:15:00,
2013-03-28 23:20:00,44.6,36.1,30.26,NNW,327,0.0,0.0,72,0.00,,,0.00,Wunderground v.1.15,2013-03-29 03:20:00,
2013-03-28 23:25:00,44.2,36.1,30.26,NNW,327,0.0,0.0,73,0.00,,,0.00,Wunderground v.1.15,2013-03-29 03:25:00,
2013-03-28 23:30:00,43.7,36.0,30.26,NNW,327,0.0,0.0,74,0.00,,,0.00,Wunderground v.1.15,2013-03-29 03:30:00,
2013-03-28 23:35:00,43.5,35.8,30.26,NNW,327,0.0,0.0,74,0.00,,,0.00,Wunderground v.1.15,2013-03-29 03:35:00,
2013-03-28 23:40:00,43.1,35.4,30.26,NNW,327,0.0,0.0,74,0.00,,,0.00,Wunderground v.1.15,2013-03-29 03:40:00,
2013-03-28 23:50:00,42.1,34.7,30.26,NNW,327,0.0,0.0,75,0.00,,,0.00,Wunderground v.1.15,2013-03-29 03:50:00,
2013-03-28 23:55:00,41.9,34.6,30.26,NNW,327,0.0,0.0,75,0.00,,,0.00,Wunderground v.1.15,2013-03-29 03:55:00,